< < Back
Terminal Aerodrome Forecast


Current Version              Previous Versions:   1  2  3  4  5  6  7  8  9  

Terminal Aerodrome Forecast

423
FTUS44 KBMX 271100 RRA
TAFANB
TAF
KANB 271141Z 2712/2812 00000KT 6SM BR FEW250
     FM271300 25007KT P6SM SCT250
     FM271800 25011G17KT P6SM SCT050
     FM280100 24005KT P6SM SCT250=



Latest METAR

508
SAUS70 KWBC 280400 RRA
MTRANB
METAR KANB 280353Z AUTO 25004KT 10SM CLR 26/22 A2997 RMK AO2 SLP135
T02610222


USA.gov is the U.S. government's official web portal to all federal, state and local government web resources and services.